createdAt,value
2024-05-09T00:01:13.843Z,102166.56
2024-05-09T00:03:43.969Z,102169.47
2024-05-09T00:06:16.500Z,102166.66
2024-05-09T00:08:46.468Z,102172.44
2024-05-09T00:11:16.946Z,102175.94
2024-05-09T00:13:46.351Z,102187.31
2024-05-09T00:16:15.681Z,102170.25
2024-05-09T00:18:44.975Z,102171.84
2024-05-09T00:21:16.907Z,102177.09
2024-05-09T00:23:46.154Z,102157.03
2024-05-09T00:26:18.115Z,102169.28
2024-05-09T00:28:47.428Z,102162.50
2024-05-09T00:31:16.743Z,102168.63
2024-05-09T00:33:46.061Z,102162.59
2024-05-09T00:36:18.059Z,102165.66
2024-05-09T00:38:47.683Z,102169.72
2024-05-09T00:41:19.746Z,102164.16
2024-05-09T00:43:49.361Z,102169.28
2024-05-09T00:46:18.762Z,102162.28
2024-05-09T00:48:48.129Z,102161.91
2024-05-09T00:51:20.403Z,102160.22
2024-05-09T00:53:50.158Z,102166.28
2024-05-09T00:56:19.814Z,102160.81
2024-05-09T00:58:49.889Z,102171.75
2024-05-09T01:01:23.460Z,102165.31
2024-05-09T01:03:53.375Z,102171.00
2024-05-09T01:06:25.345Z,102160.72
2024-05-09T01:08:54.711Z,102175.00
2024-05-09T01:11:24.005Z,102180.09
2024-05-09T01:13:53.352Z,102175.88
2024-05-09T01:16:22.625Z,102180.81
2024-05-09T01:18:52.007Z,102174.22
2024-05-09T01:21:21.540Z,102171.72
2024-05-09T01:23:53.461Z,102183.22
2024-05-09T01:26:22.737Z,102173.41
2024-05-09T01:28:52.028Z,102174.81
2024-05-09T01:31:21.307Z,102165.91
2024-05-09T01:33:50.615Z,102166.38
2024-05-09T01:36:21.144Z,102168.88
2024-05-09T01:38:52.946Z,102163.47
2024-05-09T01:41:22.262Z,102169.84
2024-05-09T01:43:51.469Z,102166.25
2024-05-09T01:46:20.803Z,102173.00
2024-05-09T01:48:50.091Z,102169.53
2024-05-09T01:51:19.401Z,102165.78
2024-05-09T01:53:48.634Z,102163.78
2024-05-09T01:56:20.455Z,102181.56
2024-05-09T01:58:49.674Z,102179.41
2024-05-09T02:01:18.986Z,102184.44
2024-05-09T02:03:49.325Z,102171.22
2024-05-09T02:06:18.715Z,102177.53
2024-05-09T02:08:48.646Z,102165.88
2024-05-09T02:11:20.506Z,102172.50
2024-05-09T02:13:49.738Z,102160.41
2024-05-09T02:16:18.943Z,102163.63
2024-05-09T02:18:48.186Z,102165.88
2024-05-09T02:21:17.586Z,102166.91
2024-05-09T02:23:46.826Z,102164.44
2024-05-09T02:26:16.295Z,102165.41
2024-05-09T02:28:48.096Z,102166.97
2024-05-09T02:31:17.474Z,102156.34
2024-05-09T02:33:44.311Z,102157.00
2024-05-09T02:36:13.780Z,102170.69
2024-05-09T02:38:40.455Z,102165.44
2024-05-09T02:41:09.708Z,102161.50
2024-05-09T02:43:36.366Z,102162.09
2024-05-09T02:46:09.488Z,102168.50
2024-05-09T02:48:36.307Z,102166.81
2024-05-09T02:51:05.762Z,102160.56
2024-05-09T02:53:32.621Z,102160.69
2024-05-09T02:56:02.171Z,102163.66
2024-05-09T02:58:28.814Z,102163.94
2024-05-09T03:00:58.122Z,102155.78
2024-05-09T03:03:27.720Z,102151.16
2024-05-09T03:05:57.019Z,102157.00
2024-05-09T03:08:23.749Z,102159.31
2024-05-09T03:10:53.157Z,102149.50
2024-05-09T03:13:19.817Z,102152.94
2024-05-09T03:15:49.173Z,102157.63
2024-05-09T03:18:18.553Z,102167.25
2024-05-09T03:20:47.939Z,102165.78
2024-05-09T03:23:17.459Z,102171.13
2024-05-09T03:25:44.165Z,102171.41
2024-05-09T03:28:13.903Z,102163.31
2024-05-09T03:30:42.912Z,102167.88
2024-05-09T03:33:15.210Z,102162.13
2024-05-09T03:35:43.011Z,102168.41
2024-05-09T03:38:15.006Z,102174.31
2024-05-09T03:40:49.602Z,102162.06
2024-05-09T03:43:20.549Z,102174.53
2024-05-09T03:45:51.626Z,102175.53
2024-05-09T03:48:18.544Z,102170.47
2024-05-09T03:50:48.489Z,102177.91
2024-05-09T03:53:17.887Z,102172.72
2024-05-09T03:55:47.199Z,102166.94
2024-05-09T03:58:14.582Z,102169.94
2024-05-09T04:00:44.592Z,102176.50
2024-05-09T04:03:12.835Z,102170.75
2024-05-09T04:05:43.881Z,102161.25
2024-05-09T04:08:11.581Z,102163.94
2024-05-09T04:10:43.954Z,102162.84
2024-05-09T04:13:11.073Z,102178.63
2024-05-09T04:15:40.461Z,102158.13
2024-05-09T04:18:07.434Z,102158.97
2024-05-09T04:20:39.768Z,102166.34
2024-05-09T04:23:10.759Z,102166.44
2024-05-09T04:25:45.055Z,102167.31
2024-05-09T04:28:12.618Z,102165.69
2024-05-09T04:30:42.609Z,102170.66
2024-05-09T04:33:12.304Z,102164.16
2024-05-09T04:35:44.691Z,102170.25
2024-05-09T04:38:12.240Z,102174.75
2024-05-09T04:40:44.217Z,102179.38
2024-05-09T04:43:14.676Z,102173.63
2024-05-09T04:45:44.402Z,102167.34
2024-05-09T04:48:11.582Z,102165.41
2024-05-09T04:50:41.132Z,102168.72
2024-05-09T04:53:10.181Z,102182.69
2024-05-09T04:55:40.804Z,102170.78
2024-05-09T04:58:13.836Z,102177.78
2024-05-09T05:00:41.545Z,102182.22
2024-05-09T05:03:15.004Z,102177.88
2024-05-09T05:05:44.586Z,102183.53
2024-05-09T05:08:15.682Z,102199.00
2024-05-09T05:10:43.674Z,102185.34
2024-05-09T05:13:20.796Z,102196.19
2024-05-09T05:15:53.181Z,102182.47
2024-05-09T05:18:20.267Z,102175.31
2024-05-09T05:20:50.012Z,102179.13
2024-05-09T05:23:19.695Z,102184.44
2024-05-09T05:25:51.029Z,102195.84
2024-05-09T05:28:20.645Z,102187.41
2024-05-09T05:30:50.249Z,102181.88
2024-05-09T05:33:18.786Z,102176.97
2024-05-09T05:35:48.555Z,102180.25
2024-05-09T05:38:17.986Z,102200.84
2024-05-09T05:40:44.820Z,102187.22
2024-05-09T05:43:19.167Z,102180.34
2024-05-09T05:45:48.467Z,102175.38
2024-05-09T05:48:21.105Z,102187.41
2024-05-09T05:50:47.963Z,102175.00
2024-05-09T05:53:17.334Z,102175.44
2024-05-09T05:55:43.995Z,102171.22
2024-05-09T05:58:14.760Z,102172.19
2024-05-09T06:00:42.578Z,102172.16
2024-05-09T06:03:15.265Z,102174.28
2024-05-09T06:05:43.945Z,102177.47
2024-05-09T06:08:14.674Z,102169.75
2024-05-09T06:10:42.440Z,102173.13
2024-05-09T06:13:12.468Z,102174.78
2024-05-09T06:18:10.968Z,102180.25
2024-05-09T06:20:43.338Z,102172.97
2024-05-09T06:23:13.659Z,102177.22
2024-05-09T06:25:40.711Z,102173.41
2024-05-09T06:28:10.012Z,102173.78
2024-05-09T06:30:40.457Z,102176.13
2024-05-09T06:33:14.697Z,102163.81
2024-05-09T06:35:46.313Z,102169.13
2024-05-09T06:38:15.954Z,102168.38
2024-05-09T06:40:44.052Z,102171.00
2024-05-09T06:43:15.396Z,102174.06
2024-05-09T06:45:43.730Z,102172.97
2024-05-09T06:48:13.952Z,102168.25
2024-05-09T06:50:41.275Z,102159.94
2024-05-09T06:53:13.310Z,102167.19
2024-05-09T06:55:40.436Z,102153.31
2024-05-09T06:58:10.949Z,102164.03
2024-05-09T07:00:40.222Z,102163.53
2024-05-09T07:03:12.648Z,102158.31
2024-05-09T07:05:40.876Z,102155.94
2024-05-09T07:08:13.363Z,102165.56
2024-05-09T07:10:40.134Z,102159.44
2024-05-09T07:13:11.039Z,102152.19
2024-05-09T07:15:38.013Z,102156.78
2024-05-09T07:18:15.554Z,102150.78
2024-05-09T07:20:43.063Z,102152.75
2024-05-09T07:23:15.729Z,102151.00
2024-05-09T07:25:43.130Z,102143.06
2024-05-09T07:28:16.773Z,102150.47
2024-05-09T07:30:44.166Z,102149.66
2024-05-09T07:33:19.187Z,102144.97
2024-05-09T07:35:46.523Z,102142.22
2024-05-09T07:38:18.620Z,102142.03
2024-05-09T07:40:45.585Z,102150.25
2024-05-09T07:43:15.873Z,102154.44
2024-05-09T07:45:51.123Z,102152.91
2024-05-09T07:52:37.297Z,102155.00
2024-05-09T07:53:49.923Z,102141.41
2024-05-09T07:56:21.991Z,102156.50
2024-05-09T07:58:53.650Z,102161.84
2024-05-09T08:01:21.273Z,102151.66
2024-05-09T08:03:50.905Z,102147.09
2024-05-09T08:06:17.867Z,102142.44
2024-05-09T08:08:50.781Z,102129.78
2024-05-09T08:11:17.579Z,102127.03
2024-05-09T08:13:46.810Z,102133.97
2024-05-09T08:16:14.280Z,102133.66
2024-05-09T08:18:43.777Z,102133.44
2024-05-09T08:21:10.504Z,102128.16
2024-05-09T08:23:39.759Z,102135.84
2024-05-09T08:26:09.100Z,102135.09
2024-05-09T08:28:38.341Z,102122.63
2024-05-09T08:31:06.975Z,102127.66
2024-05-09T08:33:37.059Z,102123.56
2024-05-09T08:36:04.238Z,102124.88
2024-05-09T08:38:33.434Z,102124.53
2024-05-09T08:41:03.291Z,102134.03
2024-05-09T08:43:36.177Z,102124.00
2024-05-09T08:46:06.258Z,102115.34
2024-05-09T08:48:39.241Z,102117.41
2024-05-09T08:51:06.517Z,102109.34
2024-05-09T08:53:35.947Z,102111.72
2024-05-09T08:56:02.804Z,102112.72
2024-05-09T08:58:35.170Z,102120.25
2024-05-09T09:01:04.022Z,102121.38
2024-05-09T09:03:35.909Z,102119.78
2024-05-09T09:06:06.197Z,102115.44
2024-05-09T09:08:35.809Z,102113.88
2024-05-09T09:11:03.020Z,102106.28
2024-05-09T09:13:34.984Z,102107.25
2024-05-09T09:16:02.896Z,102104.44
2024-05-09T09:18:33.165Z,102105.78
2024-05-09T09:21:00.241Z,102102.06
2024-05-09T09:23:30.637Z,102105.84
2024-05-09T09:25:58.677Z,102112.72
2024-05-09T09:28:28.102Z,102100.66
2024-05-09T09:31:01.722Z,102095.47
2024-05-09T09:33:32.061Z,102086.25
2024-05-09T09:35:59.075Z,102098.94
2024-05-09T09:38:33.234Z,102098.03
2024-05-09T09:41:05.191Z,102091.56
2024-05-09T09:43:35.509Z,102092.81
2024-05-09T09:46:08.702Z,102085.47
2024-05-09T09:48:41.250Z,102096.16
2024-05-09T09:51:08.438Z,102094.63
2024-05-09T09:53:39.989Z,102092.22
2024-05-09T09:56:08.393Z,102093.81
2024-05-09T09:58:38.806Z,102087.06
2024-05-09T10:01:08.109Z,102097.38
2024-05-09T10:03:37.610Z,102080.56
2024-05-09T10:06:05.458Z,102076.72
2024-05-09T10:08:34.893Z,102091.47
2024-05-09T10:11:03.797Z,102088.78
2024-05-09T10:13:37.023Z,102082.84
2024-05-09T10:16:11.221Z,102085.19
2024-05-09T10:18:41.666Z,102082.25
2024-05-09T10:21:18.111Z,102086.59
2024-05-09T10:23:59.348Z,102085.22
2024-05-09T10:26:33.265Z,102081.75
2024-05-09T10:29:03.530Z,102087.81
2024-05-09T10:31:33.670Z,102086.19
2024-05-09T10:34:03.625Z,102077.72
2024-05-09T10:36:30.439Z,102077.50
2024-05-09T10:38:59.692Z,102078.47
2024-05-09T10:41:26.396Z,102071.66
2024-05-09T10:43:55.615Z,102072.28
2024-05-09T10:46:22.540Z,102065.47
2024-05-09T10:48:54.722Z,102074.44
2024-05-09T10:51:21.601Z,102065.16
2024-05-09T10:53:52.532Z,102062.69
2024-05-09T10:56:19.304Z,102054.94
2024-05-09T10:58:48.525Z,102050.75
2024-05-09T11:01:16.714Z,102046.09
2024-05-09T11:03:49.771Z,102043.94
2024-05-09T11:06:19.171Z,102045.34
2024-05-09T11:08:49.110Z,102033.69
2024-05-09T11:11:16.354Z,102043.31
2024-05-09T11:13:45.651Z,102051.38
2024-05-09T11:16:19.390Z,102031.63
2024-05-09T11:18:56.580Z,102032.41
2024-05-09T11:21:26.126Z,102024.53
2024-05-09T11:23:55.613Z,102029.41
2024-05-09T11:26:22.738Z,102028.31
2024-05-09T11:28:52.638Z,102025.78
2024-05-09T11:31:19.760Z,102017.13
2024-05-09T11:33:49.348Z,102024.72
2024-05-09T11:36:16.647Z,102015.09
2024-05-09T11:38:48.503Z,102010.81
2024-05-09T11:41:17.250Z,102008.03
2024-05-09T11:43:46.589Z,102005.75
2024-05-09T11:46:13.729Z,102003.53
2024-05-09T11:48:43.392Z,101999.34
2024-05-09T11:51:10.259Z,101994.50
2024-05-09T11:53:39.481Z,101996.22
2024-05-09T11:56:10.058Z,102000.88
2024-05-09T11:58:39.580Z,101992.38
2024-05-09T12:01:06.407Z,102000.16
2024-05-09T12:03:38.015Z,101997.47
2024-05-09T12:06:05.317Z,101987.09
2024-05-09T12:08:34.757Z,101993.22
2024-05-09T12:11:01.783Z,101989.38
2024-05-09T12:13:33.667Z,101983.34
2024-05-09T12:16:01.093Z,101991.00
2024-05-09T12:18:30.464Z,101993.00
2024-05-09T12:20:57.159Z,101985.13
2024-05-09T12:23:26.368Z,101989.53
2024-05-09T12:25:53.259Z,101992.00
2024-05-09T12:28:23.360Z,101974.19
2024-05-09T12:30:52.748Z,101978.47
2024-05-09T12:33:22.444Z,101975.06
2024-05-09T12:35:50.984Z,101970.44
2024-05-09T12:38:20.906Z,101974.72
2024-05-09T12:40:47.596Z,101966.16
2024-05-09T12:43:16.980Z,101961.66
2024-05-09T12:45:43.762Z,101953.78
2024-05-09T12:48:15.799Z,101958.44
2024-05-09T12:50:43.125Z,101957.59
2024-05-09T12:53:12.659Z,101949.97
2024-05-09T12:55:47.962Z,101950.44
2024-05-09T12:58:24.182Z,101946.84
2024-05-09T13:00:51.840Z,101927.97
2024-05-09T13:03:24.241Z,101927.63
2024-05-09T13:05:51.781Z,101924.72
2024-05-09T13:08:22.137Z,101907.41
2024-05-09T13:10:50.193Z,101910.59
2024-05-09T13:13:19.868Z,101908.66
2024-05-09T13:15:46.933Z,101901.59
2024-05-09T13:18:16.657Z,101909.31
2024-05-09T13:20:46.022Z,101923.09
2024-05-09T13:23:15.277Z,101921.97
2024-05-09T13:25:42.011Z,101897.38
2024-05-09T13:28:11.447Z,101893.19
2024-05-09T13:30:41.141Z,101889.06
2024-05-09T13:33:12.976Z,101881.16
2024-05-09T13:35:46.696Z,101879.09
2024-05-09T13:38:22.392Z,101889.94
2024-05-09T13:40:50.224Z,101885.72
2024-05-09T13:43:21.807Z,101883.84
2024-05-09T13:45:49.017Z,101873.47
2024-05-09T13:48:19.654Z,101868.22
2024-05-09T13:50:46.950Z,101875.16
2024-05-09T13:53:16.319Z,101873.09
2024-05-09T13:55:45.784Z,101863.13
2024-05-09T13:58:15.461Z,101866.09
2024-05-09T14:00:47.135Z,101884.38
2024-05-09T14:03:20.311Z,101879.94
2024-05-09T14:05:49.346Z,101886.22
2024-05-09T14:08:20.094Z,101863.56
2024-05-09T14:10:50.289Z,101869.31
2024-05-09T14:13:20.118Z,101857.34
2024-05-09T14:15:47.080Z,101861.84
2024-05-09T14:18:16.657Z,101857.09
2024-05-09T14:20:43.588Z,101862.56
2024-05-09T14:23:13.026Z,101850.81
2024-05-09T14:25:42.839Z,101848.69
2024-05-09T14:28:15.845Z,101836.75
2024-05-09T14:30:43.028Z,101840.44
2024-05-09T14:33:12.586Z,101836.72
2024-05-09T14:35:39.569Z,101842.75
2024-05-09T14:38:09.936Z,101839.88
2024-05-09T14:40:41.979Z,101848.03
2024-05-09T14:43:16.595Z,101840.34
2024-05-09T14:45:43.996Z,101832.59
2024-05-09T14:48:14.804Z,101821.75
2024-05-09T14:50:42.362Z,101827.97
2024-05-09T14:53:13.541Z,101826.72
2024-05-09T14:55:42.468Z,101817.94
2024-05-09T14:58:13.673Z,101816.00
2024-05-09T15:00:49.834Z,101811.19
2024-05-09T15:03:21.572Z,101810.25
2024-05-09T15:05:49.186Z,101814.13
2024-05-09T15:08:19.763Z,101807.66
2024-05-09T15:10:47.121Z,101812.13
2024-05-09T15:13:17.330Z,101800.03
2024-05-09T15:15:47.094Z,101800.09
2024-05-09T15:18:16.919Z,101801.72
2024-05-09T15:20:44.756Z,101803.97
2024-05-09T15:23:14.203Z,101796.56
2024-05-09T15:25:41.030Z,101799.38
2024-05-09T15:28:10.397Z,101803.44
2024-05-09T15:30:37.778Z,101799.38
2024-05-09T15:33:09.984Z,101791.50
2024-05-09T15:35:41.132Z,101784.88
2024-05-09T15:38:11.278Z,101780.66
2024-05-09T15:40:40.467Z,101776.97
2024-05-09T15:43:11.874Z,101771.88
2024-05-09T15:45:39.202Z,101781.72
2024-05-09T15:48:12.573Z,101776.84
2024-05-09T15:50:41.639Z,101790.34
2024-05-09T15:53:13.211Z,101791.97
2024-05-09T15:55:40.680Z,101781.63
2024-05-09T15:58:10.457Z,101774.09
2024-05-09T16:00:41.051Z,101779.41
2024-05-09T16:03:15.996Z,101764.38
2024-05-09T16:05:43.904Z,101778.88
2024-05-09T16:08:14.409Z,101775.97
2024-05-09T16:10:44.475Z,101769.84
2024-05-09T16:13:14.998Z,101773.28
2024-05-09T16:15:43.003Z,101774.34
2024-05-09T16:18:15.205Z,101773.06
2024-05-09T16:20:43.548Z,101778.28
2024-05-09T16:23:14.392Z,101787.00
2024-05-09T16:25:42.918Z,101781.88
2024-05-09T16:28:12.208Z,101776.59
2024-05-09T16:30:39.733Z,101772.31
2024-05-09T16:33:10.823Z,101768.56
2024-05-09T16:35:40.644Z,101775.47
2024-05-09T16:38:10.101Z,101762.84
2024-05-09T16:40:40.192Z,101769.47
2024-05-09T16:43:11.344Z,101770.66
2024-05-09T16:45:40.276Z,101767.44
2024-05-09T16:48:11.226Z,101769.72
2024-05-09T16:50:40.647Z,101774.69
2024-05-09T16:53:09.916Z,101771.91
2024-05-09T16:55:36.855Z,101767.97
2024-05-09T16:58:08.045Z,101769.38
2024-05-09T17:00:40.853Z,101765.28
2024-05-09T17:03:16.507Z,101757.97
2024-05-09T17:05:47.439Z,101762.38
2024-05-09T17:08:18.525Z,101768.81
2024-05-09T17:10:46.105Z,101767.69
2024-05-09T17:13:15.550Z,101758.06
2024-05-09T17:15:44.959Z,101764.06
2024-05-09T17:18:11.820Z,101768.03
2024-05-09T17:20:41.099Z,101763.78
2024-05-09T17:23:13.930Z,101754.47
2024-05-09T17:25:44.092Z,101759.41
2024-05-09T17:28:11.604Z,101761.88
2024-05-09T17:30:42.367Z,101764.50
2024-05-09T17:33:11.037Z,101753.75
2024-05-09T17:35:41.363Z,101768.03
2024-05-09T17:38:10.641Z,101764.13
2024-05-09T17:40:40.261Z,101763.56
2024-05-09T17:43:08.961Z,101766.56
2024-05-09T17:45:40.990Z,101763.03
2024-05-09T17:48:10.228Z,101758.81
2024-05-09T17:50:41.251Z,101769.78
2024-05-09T17:53:11.484Z,101770.00
2024-05-09T17:55:42.660Z,101763.31
2024-05-09T17:58:10.349Z,101751.88
2024-05-09T18:00:42.075Z,101758.31
2024-05-09T18:03:12.030Z,101760.28
2024-05-09T18:05:43.801Z,101757.34
2024-05-09T18:08:14.066Z,101765.31
2024-05-09T18:10:44.372Z,101755.50
2024-05-09T18:13:12.291Z,101759.41
2024-05-09T18:15:42.775Z,101774.78
2024-05-09T18:18:10.722Z,101777.63
2024-05-09T18:20:44.404Z,101771.06
2024-05-09T18:23:17.829Z,101771.34
2024-05-09T18:25:48.565Z,101769.47
2024-05-09T18:28:16.239Z,101768.63
2024-05-09T18:30:46.240Z,101772.88
2024-05-09T18:33:13.481Z,101773.16
2024-05-09T18:35:45.138Z,101768.94
2024-05-09T18:38:12.133Z,101768.78
2024-05-09T18:40:46.252Z,101772.09
2024-05-09T18:43:15.252Z,101763.72
2024-05-09T18:45:44.587Z,101767.72
2024-05-09T18:48:11.735Z,101779.47
2024-05-09T18:50:41.765Z,101785.06
2024-05-09T18:53:09.908Z,101787.81
2024-05-09T18:55:39.490Z,101789.09
2024-05-09T18:58:08.813Z,101788.81
2024-05-09T19:00:40.457Z,101793.66
2024-05-09T19:03:12.364Z,101796.84
2024-05-09T19:05:45.019Z,101796.72
2024-05-09T19:08:12.938Z,101801.94
2024-05-09T19:10:42.375Z,101806.31
2024-05-09T19:13:13.583Z,101810.44
2024-05-09T19:15:44.424Z,101816.41
2024-05-09T19:18:12.608Z,101817.94
2024-05-09T19:20:42.387Z,101815.91
2024-05-09T19:23:10.860Z,101813.75
2024-05-09T19:25:40.226Z,101816.06
2024-05-09T19:28:07.212Z,101802.31
2024-05-09T19:30:42.448Z,101805.72
2024-05-09T19:33:12.350Z,101816.44
2024-05-09T19:35:42.873Z,101822.91
2024-05-09T19:38:10.938Z,101811.25
2024-05-09T19:40:40.363Z,101817.94
2024-05-09T19:43:07.371Z,101822.53
2024-05-09T19:45:39.402Z,101821.16
2024-05-09T19:48:07.186Z,101822.66
2024-05-09T19:50:42.309Z,101828.75
2024-05-09T19:53:11.701Z,101834.56
2024-05-09T19:55:41.438Z,101836.38
2024-05-09T19:58:08.791Z,101841.69
2024-05-09T20:00:43.225Z,101831.59
2024-05-09T20:03:11.946Z,101830.81
2024-05-09T20:05:41.541Z,101842.44
2024-05-09T20:08:08.312Z,101842.69
2024-05-09T20:10:37.732Z,101839.50
2024-05-09T20:13:06.687Z,101849.69
2024-05-09T20:15:37.847Z,101844.56
2024-05-09T20:18:10.363Z,101845.88
2024-05-09T20:20:41.287Z,101837.69
2024-05-09T20:23:13.250Z,101833.47
2024-05-09T20:25:40.464Z,101841.13
2024-05-09T20:28:10.571Z,101844.47
2024-05-09T20:30:37.717Z,101844.06
2024-05-09T20:33:10.718Z,101838.97
2024-05-09T20:35:37.511Z,101831.09
2024-05-09T20:38:07.100Z,101831.03
2024-05-09T20:40:37.552Z,101838.97
2024-05-09T20:43:08.870Z,101831.16
2024-05-09T20:45:36.125Z,101831.44
2024-05-09T20:48:05.974Z,101824.88
2024-05-09T20:50:39.746Z,101833.00
2024-05-09T20:53:13.200Z,101836.44
2024-05-09T20:55:41.134Z,101834.81
2024-05-09T20:58:10.888Z,101837.56
2024-05-09T21:00:41.437Z,101835.22
2024-05-09T21:03:14.869Z,101831.94
2024-05-09T21:05:46.054Z,101833.78
2024-05-09T21:08:15.647Z,101827.22
2024-05-09T21:10:42.453Z,101832.31
2024-05-09T21:13:11.956Z,101830.31
2024-05-09T21:15:38.825Z,101823.66
2024-05-09T21:18:08.298Z,101834.00
2024-05-09T21:20:35.471Z,101832.69
2024-05-09T21:23:07.900Z,101827.06
2024-05-09T21:25:34.639Z,101831.66
2024-05-09T21:28:04.004Z,101830.06
2024-05-09T21:30:38.855Z,101835.09
2024-05-09T21:33:13.441Z,101831.91
2024-05-09T21:35:41.538Z,101836.47
2024-05-09T21:38:13.926Z,101839.16
2024-05-09T21:40:40.903Z,101832.75
2024-05-09T21:43:10.272Z,101825.34
2024-05-09T21:45:37.551Z,101824.00
2024-05-09T21:48:08.103Z,101823.50
2024-05-09T21:50:40.314Z,101823.78
2024-05-09T21:53:14.264Z,101829.16
2024-05-09T21:55:41.310Z,101825.06
2024-05-09T21:58:10.696Z,101811.97
2024-05-09T22:00:39.510Z,101831.81
2024-05-09T22:03:10.608Z,101830.97
2024-05-09T22:05:39.086Z,101823.34
2024-05-09T22:08:09.679Z,101826.97
2024-05-09T22:10:39.063Z,101822.25
2024-05-09T22:13:09.010Z,101824.75
2024-05-09T22:15:37.813Z,101825.00
2024-05-09T22:18:09.970Z,101820.78
2024-05-09T22:20:43.405Z,101824.94
2024-05-09T22:23:13.235Z,101820.56
2024-05-09T22:25:42.567Z,101822.97
2024-05-09T22:28:11.891Z,101830.56
2024-05-09T22:30:40.059Z,101830.69
2024-05-09T22:33:11.838Z,101816.13
2024-05-09T22:35:39.055Z,101828.50
2024-05-09T22:38:08.621Z,101833.78
2024-05-09T22:40:46.451Z,101830.91
2024-05-09T22:43:24.521Z,101831.03
2024-05-09T22:45:52.664Z,101829.09
2024-05-09T22:48:23.379Z,101828.47
2024-05-09T22:50:50.377Z,101829.81
2024-05-09T22:53:19.681Z,101825.91
2024-05-09T22:55:46.313Z,101832.81
2024-05-09T22:58:15.683Z,101831.28
2024-05-09T23:00:45.019Z,101829.25
2024-05-09T23:03:15.827Z,101817.28
2024-05-09T23:05:42.697Z,101823.53
2024-05-09T23:08:12.729Z,101822.44
2024-05-09T23:10:39.510Z,101829.53
2024-05-09T23:13:09.417Z,101823.16
2024-05-09T23:15:36.930Z,101813.66
2024-05-09T23:18:09.686Z,101814.13
2024-05-09T23:20:39.178Z,101819.06
2024-05-09T23:23:11.058Z,101818.50
2024-05-09T23:25:39.181Z,101822.63
2024-05-09T23:28:08.736Z,101814.28
2024-05-09T23:30:39.042Z,101814.66
2024-05-09T23:33:14.540Z,101817.63
2024-05-09T23:35:42.068Z,101813.41
2024-05-09T23:38:11.724Z,101812.72
2024-05-09T23:40:40.832Z,101811.84
2024-05-09T23:43:12.310Z,101810.47
2024-05-09T23:45:40.002Z,101804.44
2024-05-09T23:48:12.718Z,101805.69
2024-05-09T23:50:40.573Z,101802.97
2024-05-09T23:53:11.119Z,101802.00
2024-05-09T23:55:38.872Z,101806.22
2024-05-09T23:58:08.802Z,101803.00
